Etusivu
METAR-TAF:

METAR-TAF

Lentoasemat :

Huntsville, Alabama, Yhdysvallat

Leveyspiiri: 34-51-41N, Pituuspiiri: 086-33-26W, korkeus merenpinnasta: 230 m

Tämänhetkinen sää

Tämä raportti tehtiin 38 minuuttia sitten, kello 11.55 UTC
Tuuli 7 kn kaakosta
Lämpötila 13°C
Kosteus 94%
Ilmanpaine 1017 hPa
Näkyvyys: 16.1 km
Pilvistä 1000 ft:n korkeudessa
heikkoa tihkusadetta

METAR: KMDQ 181155Z AUTO 14007KT 10SM -DZ OVC010 13/12 A3004 RMK A02 T01270120 10136 20122

Aika: 06:33 (12:33 UTC)


TAF: puuttuu

Säähavainnot ja -ennusteet yli 4000 lentoasemalta (METAR- ja TAF-raportit).

Käytössä olevat sääasemat on merkitty karttaan keltaisilla ja punaisilla pisteillä.

Aseta hiiri pisteen päälle nähdäksesi sääaseman nimen.

Klikkaa sitten nähdäksesi säähavainnot ja -ennusteet.

Kartan vaihtaminen: klikkaa mustalla rastilla varustettuja vihreitä pisteitä, niin voit zoomata sisään; viivalla varustettua vihreää pistettä, niin voit zoomata ulos tai vihreitä nuolia, niin pääset viereisille kartoille.


METAR-TAF: